Time;durP1;ratioP1;P1;durP2;ratioP2;P2;SDS_P1;SDS_P2;PMS_P1;PMS_P2;Temp;Humidity;BMP_temperature;BMP_pressure;BME280_temperature;BME280_humidity;BME280_pressure;Samples;Min_cycle;Max_cycle;Signal;HPM_P1;HPM_P2
2021/12/03 00:00:55;;;;;;;20.75;9.20;;;-1.00;96.90;;;;;;6189085;23;20723;-83
2021/12/03 00:03:24;;;;;;;25.60;9.63;;;-1.00;97.00;;;;;;6212069;23;20029;-83
2021/12/03 00:05:52;;;;;;;24.27;8.55;;;-0.90;97.00;;;;;;6188603;23;20097;-83
2021/12/03 00:08:19;;;;;;;22.23;7.90;;;-1.00;97.00;;;;;;6188935;23;20025;-83
2021/12/03 00:10:54;;;;;;;14.82;8.38;;;-1.00;97.00;;;;;;6188579;23;20026;-83
2021/12/03 00:13:24;;;;;;;22.27;7.70;;;-0.90;97.00;;;;;;6187603;23;20022;-84
2021/12/03 00:15:52;;;;;;;18.75;7.47;;;-0.90;97.00;;;;;;6189174;23;20519;-83
2021/12/03 00:18:19;;;;;;;19.48;8.20;;;-0.90;97.00;;;;;;6188081;23;20376;-83
2021/12/03 00:20:49;;;;;;;19.75;6.90;;;-0.90;97.00;;;;;;6188378;23;20101;-83
2021/12/03 00:23:17;;;;;;;16.98;8.43;;;-0.90;97.10;;;;;;6187253;23;20041;-83
2021/12/03 00:25:44;;;;;;;23.92;8.88;;;-0.90;97.10;;;;;;6189243;23;20491;-83
2021/12/03 00:28:12;;;;;;;23.65;6.80;;;-0.90;97.10;;;;;;6188715;23;20031;-83
2021/12/03 00:30:39;;;;;;;28.98;9.60;;;-0.90;97.10;;;;;;6189063;23;20109;-83
2021/12/03 00:33:08;;;;;;;25.33;9.77;;;-0.90;97.10;;;;;;6188989;23;20013;-83
2021/12/03 00:35:35;;;;;;;24.10;9.18;;;-0.90;97.10;;;;;;6188410;23;20025;-83
2021/12/03 00:38:03;;;;;;;16.08;8.98;;;-0.90;97.10;;;;;;6188510;23;20025;-84
2021/12/03 00:40:33;;;;;;;21.95;8.43;;;-0.90;97.10;;;;;;6188666;23;20076;-83
2021/12/03 00:43:03;;;;;;;24.70;8.38;;;-0.90;97.20;;;;;;6186890;23;20888;-83
2021/12/03 00:45:31;;;;;;;21.80;8.98;;;-0.90;97.20;;;;;;6188532;23;20489;-83
2021/12/03 00:48:02;;;;;;;32.90;12.48;;;-0.90;97.20;;;;;;6188627;23;20022;-83
2021/12/03 00:50:31;;;;;;;31.70;12.88;;;-0.90;97.20;;;;;;6189102;23;20412;-84
2021/12/03 00:52:59;;;;;;;27.60;11.55;;;-0.80;97.30;;;;;;6189053;23;20104;-83
2021/12/03 00:55:27;;;;;;;30.35;10.32;;;-0.80;97.20;;;;;;6188746;23;20026;-83
2021/12/03 00:57:54;;;;;;;27.73;10.40;;;-0.80;97.40;;;;;;6187053;23;20028;-83
2021/12/03 01:00:25;;;;;;;30.30;11.77;;;-0.80;97.30;;;;;;6188772;23;20148;-83
2021/12/03 01:02:54;;;;;;;30.25;10.45;;;-0.80;97.40;;;;;;6189379;23;20897;-84
2021/12/03 01:05:22;;;;;;;34.80;11.45;;;-0.70;97.40;;;;;;6188667;23;21418;-83
2021/12/03 01:07:49;;;;;;;42.33;12.68;;;-0.70;97.40;;;;;;6187728;23;20092;-83
2021/12/03 01:10:16;;;;;;;33.60;11.85;;;-0.70;97.50;;;;;;6188334;23;20018;-83
2021/12/03 01:12:43;;;;;;;42.45;11.70;;;-0.70;97.40;;;;;;6188411;23;20805;-83
2021/12/03 01:15:15;;;;;;;33.28;11.90;;;-0.70;97.40;;;;;;6188823;23;20125;-83
2021/12/03 01:17:41;;;;;;;56.53;14.07;;;-0.60;97.40;;;;;;6188343;23;20063;-83
2021/12/03 01:20:10;;;;;;;39.22;12.27;;;-0.60;97.50;;;;;;6188417;23;20111;-84
2021/12/03 01:22:38;;;;;;;42.92;12.43;;;-0.60;97.50;;;;;;6186877;23;20025;-83
2021/12/03 01:25:07;;;;;;;48.97;13.93;;;-0.60;97.40;;;;;;6188299;23;20702;-83
2021/12/03 01:27:33;;;;;;;50.30;13.05;;;-0.60;97.50;;;;;;6188569;23;20033;-83
2021/12/03 01:30:00;;;;;;;36.00;12.27;;;-0.60;97.50;;;;;;6187851;23;20459;-84
2021/12/03 01:32:27;;;;;;;48.45;12.68;;;-0.60;97.50;;;;;;6185683;23;20033;-84
2021/12/03 01:34:54;;;;;;;39.92;13.40;;;-0.50;97.50;;;;;;6188154;23;20029;-84
2021/12/03 01:37:20;;;;;;;44.40;13.63;;;-0.60;97.60;;;;;;6186506;23;20021;-84
2021/12/03 01:39:47;;;;;;;43.53;13.68;;;-0.50;97.50;;;;;;6187735;23;20728;-83
2021/12/03 01:42:14;;;;;;;55.45;13.63;;;-0.50;97.60;;;;;;6187866;23;20096;-83
2021/12/03 01:44:41;;;;;;;39.25;14.20;;;-0.60;97.60;;;;;;6186563;23;20101;-84
2021/12/03 01:47:09;;;;;;;47.00;13.38;;;-0.50;97.50;;;;;;6186289;23;20026;-84
2021/12/03 01:49:36;;;;;;;36.80;13.23;;;-0.50;97.60;;;;;;6187701;23;20056;-83
2021/12/03 01:52:04;;;;;;;46.22;15.07;;;-0.50;97.50;;;;;;6187628;23;20031;-84
2021/12/03 01:54:34;;;;;;;40.08;13.93;;;-0.40;97.50;;;;;;6187887;23;20025;-83
2021/12/03 01:57:01;;;;;;;39.35;12.75;;;-0.40;97.60;;;;;;6186778;23;20022;-83
2021/12/03 01:59:27;;;;;;;43.17;12.95;;;-0.40;97.60;;;;;;6188716;23;20100;-83
2021/12/03 02:01:54;;;;;;;47.50;13.55;;;-0.40;97.60;;;;;;6188647;23;20101;-83
2021/12/03 02:04:21;;;;;;;51.63;15.10;;;-0.40;97.60;;;;;;6188692;23;20025;-83
2021/12/03 02:06:50;;;;;;;49.65;13.88;;;-0.30;97.60;;;;;;6188575;23;20703;-84
2021/12/03 02:09:17;;;;;;;42.85;14.73;;;-0.30;97.70;;;;;;6188684;23;20086;-84
2021/12/03 02:11:44;;;;;;;37.95;12.48;;;-0.30;97.70;;;;;;6188452;23;20101;-84
2021/12/03 02:14:11;;;;;;;36.08;11.93;;;-0.30;97.70;;;;;;6187931;23;20006;-84
2021/12/03 02:16:38;;;;;;;45.55;13.02;;;-0.30;97.70;;;;;;6188228;23;20069;-84
2021/12/03 02:19:05;;;;;;;41.40;11.50;;;-0.20;97.70;;;;;;6188692;23;20026;-83
2021/12/03 02:21:32;;;;;;;31.33;12.40;;;-0.30;97.70;;;;;;6187827;23;20033;-84
2021/12/03 02:23:59;;;;;;;34.90;11.43;;;-0.20;97.70;;;;;;6188407;23;20026;-84
2021/12/03 02:26:26;;;;;;;30.00;12.45;;;-0.10;97.80;;;;;;6186825;23;20022;-84
2021/12/03 02:28:53;;;;;;;40.10;12.13;;;-0.20;97.80;;;;;;6186923;23;20057;-83
2021/12/03 02:31:22;;;;;;;32.30;12.18;;;-0.10;97.80;;;;;;6186641;23;20022;-84
2021/12/03 02:33:53;;;;;;;34.45;11.45;;;-0.10;97.70;;;;;;6188064;23;20029;-83
2021/12/03 02:36:20;;;;;;;32.65;10.48;;;-0.10;97.80;;;;;;6188899;23;20442;-83
2021/12/03 02:38:47;;;;;;;28.77;12.25;;;-0.20;97.80;;;;;;6188544;23;20049;-84
2021/12/03 02:41:15;;;;;;;41.22;11.95;;;-0.10;97.80;;;;;;6188635;23;20021;-84
2021/12/03 02:43:48;;;;;;;39.75;11.18;;;-0.10;97.70;;;;;;6188461;23;20026;-84
2021/12/03 02:46:14;;;;;;;28.67;11.50;;;-0.10;97.80;;;;;;6187542;23;20029;-84
2021/12/03 02:48:42;;;;;;;44.90;11.90;;;-0.10;97.80;;;;;;6188480;23;20030;-84
2021/12/03 02:51:09;;;;;;;37.83;9.98;;;-0.10;97.80;;;;;;6188524;23;20061;-84
2021/12/03 02:53:37;;;;;;;42.53;11.18;;;-0.10;97.70;;;;;;6188233;23;20030;-83
2021/12/03 02:56:06;;;;;;;35.47;10.50;;;-0.20;97.70;;;;;;6188293;23;20021;-84
2021/12/03 02:58:33;;;;;;;35.03;10.48;;;-0.20;97.70;;;;;;6188041;23;20024;-84
2021/12/03 03:01:07;;;;;;;29.42;10.65;;;-0.20;97.60;;;;;;6187419;23;20104;-84
2021/12/03 03:03:34;;;;;;;44.83;10.88;;;-0.20;97.70;;;;;;6186984;23;20025;-84
2021/12/03 03:06:06;;;;;;;36.72;11.07;;;-0.20;97.60;;;;;;6187829;23;20025;-84
2021/12/03 03:08:34;;;;;;;50.47;11.13;;;-0.20;97.70;;;;;;6186330;23;20144;-84
2021/12/03 03:11:06;;;;;;;52.45;10.82;;;-0.20;97.60;;;;;;6210180;23;20030;-84
2021/12/03 03:13:35;;;;;;;37.33;10.63;;;-0.20;97.60;;;;;;6188515;23;20116;-84
2021/12/03 03:16:02;;;;;;;37.10;12.25;;;-0.20;97.70;;;;;;6186589;23;20077;-84
2021/12/03 03:18:29;;;;;;;41.65;11.88;;;-0.20;97.70;;;;;;6188056;23;20022;-84
2021/12/03 03:21:00;;;;;;;52.95;11.75;;;-0.10;97.60;;;;;;6187996;23;20108;-84
2021/12/03 03:23:27;;;;;;;48.17;10.85;;;-0.20;97.60;;;;;;6188645;23;20064;-84
2021/12/03 03:25:54;;;;;;;46.20;11.18;;;-0.20;97.60;;;;;;6188338;23;20025;-84
2021/12/03 03:28:22;;;;;;;52.17;12.10;;;-0.20;97.60;;;;;;6186926;23;20121;-84
2021/12/03 03:30:53;;;;;;;46.47;12.13;;;-0.20;97.50;;;;;;6188223;23;20025;-84
2021/12/03 03:33:20;;;;;;;45.03;11.63;;;-0.20;97.60;;;;;;6186438;23;20025;-84
2021/12/03 03:35:47;;;;;;;39.85;13.07;;;-0.30;97.60;;;;;;6187474;23;20765;-84
2021/12/03 03:38:15;;;;;;;60.97;15.98;;;-0.30;97.60;;;;;;6188209;23;20022;-84
2021/12/03 03:40:43;;;;;;;73.55;15.93;;;-0.30;97.60;;;;;;6187934;23;20041;-84
2021/12/03 03:43:10;;;;;;;48.53;14.90;;;-0.20;97.60;;;;;;6188180;23;20104;-84
2021/12/03 03:45:38;;;;;;;74.30;15.48;;;-0.20;97.60;;;;;;6186639;23;20052;-84
2021/12/03 03:48:05;;;;;;;49.55;14.45;;;-0.30;97.60;;;;;;6186483;23;20036;-84
2021/12/03 03:50:32;;;;;;;75.50;17.13;;;-0.20;97.60;;;;;;6186392;23;20796;-84
2021/12/03 03:52:59;;;;;;;56.28;17.48;;;-0.20;97.60;;;;;;6188141;23;20027;-84
2021/12/03 03:55:27;;;;;;;77.22;17.38;;;-0.20;97.60;;;;;;6188311;23;20022;-84
2021/12/03 03:57:56;;;;;;;88.30;18.40;;;-0.20;97.60;;;;;;6188270;23;20769;-84
2021/12/03 04:00:28;;;;;;;78.53;17.15;;;-0.20;97.60;;;;;;6187359;23;20053;-83
2021/12/03 04:02:55;;;;;;;76.10;18.23;;;-0.20;97.70;;;;;;6211695;23;20030;-85
2021/12/03 04:05:22;;;;;;;70.38;18.88;;;-0.20;97.70;;;;;;6186235;23;20026;-84
2021/12/03 04:07:52;;;;;;;88.82;19.92;;;-0.20;97.70;;;;;;6187929;23;20028;-84
2021/12/03 04:10:19;;;;;;;58.47;17.75;;;-0.20;97.70;;;;;;6187635;23;20076;-84
2021/12/03 04:12:46;;;;;;;83.88;18.83;;;-0.20;97.60;;;;;;6186622;23;20061;-84
2021/12/03 04:15:14;;;;;;;54.67;17.98;;;-0.20;97.60;;;;;;6188834;23;20069;-84
2021/12/03 04:17:42;;;;;;;106.93;21.00;;;-0.20;97.60;;;;;;6188116;23;20463;-84
2021/12/03 04:20:11;;;;;;;75.20;18.63;;;-0.20;97.60;;;;;;6188357;23;20526;-84
2021/12/03 04:22:38;;;;;;;85.32;19.77;;;-0.20;97.60;;;;;;6186544;23;20478;-84
2021/12/03 04:25:08;;;;;;;91.60;21.17;;;-0.30;97.60;;;;;;6187512;23;20332;-84
2021/12/03 04:27:35;;;;;;;67.80;21.75;;;-0.30;97.50;;;;;;6185995;23;20022;-84
2021/12/03 04:30:09;;;;;;;67.85;21.70;;;-0.30;97.60;;;;;;6187934;23;20029;-84
2021/12/03 04:32:36;;;;;;;88.43;24.90;;;-0.40;97.60;;;;;;6186085;23;20076;-84
2021/12/03 04:35:03;;;;;;;76.45;23.65;;;-0.30;97.60;;;;;;6187988;23;20072;-84
2021/12/03 04:37:33;;;;;;;93.78;27.35;;;-0.30;97.50;;;;;;6186456;23;20053;-84
2021/12/03 04:40:00;;;;;;;109.95;27.27;;;-0.30;97.60;;;;;;6188117;23;20362;-84
2021/12/03 04:42:27;;;;;;;117.70;27.58;;;-0.30;97.60;;;;;;6187709;23;20072;-85
2021/12/03 04:44:54;;;;;;;126.90;27.75;;;-0.30;97.60;;;;;;6188005;23;20088;-84
2021/12/03 04:47:23;;;;;;;108.10;27.77;;;-0.30;97.60;;;;;;6186020;23;20026;-84
2021/12/03 04:49:50;;;;;;;123.20;29.23;;;-0.20;97.60;;;;;;6187242;23;20080;-84
2021/12/03 04:52:16;;;;;;;122.80;27.98;;;-0.20;97.60;;;;;;6187297;23;20068;-83
2021/12/03 04:54:43;;;;;;;80.13;26.38;;;-0.20;97.60;;;;;;6187787;23;20017;-84
2021/12/03 04:57:10;;;;;;;116.00;30.23;;;-0.30;97.60;;;;;;6188151;23;20024;-84
2021/12/03 04:59:37;;;;;;;95.65;28.00;;;-0.20;97.60;;;;;;6187983;23;20663;-84
2021/12/03 05:02:09;;;;;;;84.60;28.27;;;-0.20;97.60;;;;;;6186357;23;20060;-84
2021/12/03 05:04:38;;;;;;;92.55;29.55;;;-0.20;97.60;;;;;;6186510;23;20029;-84
2021/12/03 05:09:37;;;;;;;96.40;28.02;;;-0.10;97.70;;;;;;6188063;23;20060;-85
2021/12/03 05:12:10;;;;;;;82.07;26.38;;;-0.10;97.70;;;;;;6186472;23;20061;-85
2021/12/03 05:14:37;;;;;;;87.25;27.98;;;0.00;97.70;;;;;;6187235;23;20092;-84
2021/12/03 05:17:07;;;;;;;99.22;29.90;;;0.00;97.70;;;;;;6210550;23;20026;-84
2021/12/03 05:19:34;;;;;;;93.40;27.00;;;0.00;97.70;;;;;;6187718;23;20052;-84
2021/12/03 05:22:06;;;;;;;99.28;26.63;;;0.10;97.70;;;;;;6210641;23;20112;-84
2021/12/03 05:24:32;;;;;;;86.95;25.75;;;0.10;97.70;;;;;;6186357;23;20021;-84
2021/12/03 05:27:02;;;;;;;111.75;26.90;;;0.10;97.70;;;;;;6187670;23;20085;-84
2021/12/03 05:29:31;;;;;;;85.68;24.88;;;0.10;97.70;;;;;;6187222;23;20044;-84
2021/12/03 05:31:58;;;;;;;71.53;24.52;;;0.10;97.70;;;;;;6187609;23;20025;-84
2021/12/03 05:34:28;;;;;;;100.85;24.83;;;0.10;97.60;;;;;;6188422;23;20032;-84
2021/12/03 05:36:55;;;;;;;167.27;29.10;;;0.20;97.70;;;;;;6188728;23;20017;-84
2021/12/03 05:39:22;;;;;;;96.22;28.38;;;0.20;97.60;;;;;;6188476;23;20028;-84
2021/12/03 05:41:52;;;;;;;94.90;27.77;;;0.30;97.70;;;;;;6187269;23;20026;-84
2021/12/03 05:44:21;;;;;;;83.28;25.58;;;0.30;97.70;;;;;;6186032;23;20485;-84
2021/12/03 05:46:48;;;;;;;88.70;25.33;;;0.30;97.70;;;;;;6188968;23;20049;-84
2021/12/03 05:49:14;;;;;;;79.18;26.02;;;0.40;97.70;;;;;;6188729;23;20022;-84
2021/12/03 05:51:41;;;;;;;90.40;25.00;;;0.40;97.60;;;;;;6188485;23;20399;-84
2021/12/03 05:54:09;;;;;;;121.90;28.65;;;0.40;97.70;;;;;;6188586;23;20746;-84
2021/12/03 05:56:36;;;;;;;93.38;26.92;;;0.50;97.70;;;;;;6186925;23;20081;-84
2021/12/03 05:59:03;;;;;;;96.85;24.92;;;0.50;97.70;;;;;;6189046;23;20363;-84
2021/12/03 06:01:32;;;;;;;126.78;27.58;;;0.50;97.70;;;;;;6188549;23;20774;-84
2021/12/03 06:03:59;;;;;;;73.35;25.40;;;0.60;97.70;;;;;;6186811;23;20582;-84
2021/12/03 06:06:26;;;;;;;81.57;26.10;;;0.60;97.70;;;;;;6211779;23;20558;-84
2021/12/03 06:08:57;;;;;;;101.15;26.45;;;0.60;97.60;;;;;;6187992;23;20710;-84
2021/12/03 06:11:26;;;;;;;89.03;25.13;;;0.60;97.70;;;;;;6188289;23;20509;-84
2021/12/03 06:13:53;;;;;;;60.53;24.60;;;0.70;97.70;;;;;;6188173;23;20021;-84
2021/12/03 06:16:22;;;;;;;91.10;25.35;;;0.70;97.70;;;;;;6188856;23;20060;-84
2021/12/03 06:18:49;;;;;;;61.20;23.05;;;0.70;97.70;;;;;;6188192;23;20024;-84
2021/12/03 06:21:16;;;;;;;101.35;26.02;;;0.70;97.70;;;;;;6188702;23;20021;-84
2021/12/03 06:23:43;;;;;;;69.75;23.42;;;0.70;97.70;;;;;;6188957;23;20021;-84
2021/12/03 06:26:11;;;;;;;64.00;21.55;;;0.80;97.70;;;;;;6188656;23;20108;-84
2021/12/03 06:28:39;;;;;;;66.90;21.17;;;0.70;97.60;;;;;;6186245;23;20042;-84
2021/12/03 06:31:07;;;;;;;75.22;22.55;;;0.70;97.60;;;;;;6187395;23;20432;-84
2021/12/03 06:33:33;;;;;;;77.10;23.88;;;0.70;97.60;;;;;;6188872;23;20021;-84
2021/12/03 06:36:01;;;;;;;71.03;22.00;;;0.80;97.60;;;;;;6187432;23;20096;-84
2021/12/03 06:38:27;;;;;;;60.35;22.05;;;0.70;97.60;;;;;;6186918;23;20026;-85
2021/12/03 06:40:54;;;;;;;89.25;23.85;;;0.80;97.60;;;;;;6188345;23;20029;-84
2021/12/03 06:43:24;;;;;;;75.68;22.40;;;0.80;97.60;;;;;;6186731;23;20022;-84
2021/12/03 06:45:52;;;;;;;77.78;21.95;;;0.80;97.60;;;;;;6188896;23;20021;-84
2021/12/03 06:48:19;;;;;;;89.40;21.23;;;0.80;97.50;;;;;;6187292;23;20018;-84
2021/12/03 06:50:49;;;;;;;78.68;25.35;;;0.80;97.60;;;;;;6188079;23;20037;-85
2021/12/03 06:53:17;;;;;;;71.25;22.20;;;0.80;97.50;;;;;;6187910;23;20108;-84
2021/12/03 06:55:47;;;;;;;91.10;22.17;;;0.80;97.50;;;;;;6188146;23;20462;-84
2021/12/03 06:58:15;;;;;;;81.13;21.80;;;0.90;97.60;;;;;;6188399;23;20049;-83
2021/12/03 07:00:44;;;;;;;84.13;24.08;;;0.80;97.50;;;;;;6188557;23;20112;-84
2021/12/03 07:03:14;;;;;;;89.43;24.35;;;0.90;97.50;;;;;;6187361;23;20092;-83
2021/12/03 07:05:41;;;;;;;78.20;23.05;;;1.00;97.60;;;;;;6188791;23;20089;-84
2021/12/03 07:08:08;;;;;;;107.97;23.30;;;1.00;97.60;;;;;;6189467;23;20092;-84
2021/12/03 07:10:35;;;;;;;94.25;21.05;;;1.10;97.60;;;;;;6188205;23;20514;-85
2021/12/03 07:13:03;;;;;;;77.88;21.55;;;1.10;97.50;;;;;;6188801;23;20459;-84
2021/12/03 07:15:29;;;;;;;61.45;18.92;;;1.00;97.50;;;;;;6189262;23;20022;-84
2021/12/03 07:17:56;;;;;;;69.78;18.77;;;1.10;97.50;;;;;;6188232;23;20402;-84
2021/12/03 07:20:25;;;;;;;63.17;18.65;;;1.10;97.50;;;;;;6186868;23;20648;-84
2021/12/03 07:22:52;;;;;;;59.38;19.48;;;1.10;97.40;;;;;;6187522;23;20025;-84
2021/12/03 07:25:19;;;;;;;82.78;19.55;;;1.20;97.40;;;;;;6190329;23;20026;-84
2021/12/03 07:27:46;;;;;;;68.85;17.67;;;1.20;97.30;;;;;;6188737;23;20481;-85
2021/12/03 07:30:17;;;;;;;84.45;17.48;;;1.20;97.20;;;;;;6211355;23;20029;-84
2021/12/03 07:32:45;;;;;;;58.70;15.93;;;1.20;97.30;;;;;;6187211;23;20065;-84
2021/12/03 07:35:18;;;;;;;57.17;16.80;;;1.20;97.30;;;;;;6189216;23;20721;-84
2021/12/03 07:37:48;;;;;;;54.97;15.15;;;1.20;97.20;;;;;;6188701;23;20097;-84
2021/12/03 07:40:18;;;;;;;63.65;16.85;;;1.30;97.10;;;;;;6188779;23;20030;-85
2021/12/03 07:42:49;;;;;;;60.20;14.75;;;1.30;97.10;;;;;;6186603;23;20017;-84
2021/12/03 07:45:18;;;;;;;58.97;13.82;;;1.30;96.80;;;;;;6189126;23;20013;-84
2021/12/03 07:47:55;;;;;;;52.22;14.32;;;1.30;96.50;;;;;;6189597;23;20026;-84
2021/12/03 07:50:24;;;;;;;55.60;13.45;;;1.30;96.40;;;;;;6189557;23;20029;-84
2021/12/03 07:53:17;;;;;;;49.15;14.75;;;1.30;96.30;;;;;;6188364;23;20024;-84
2021/12/03 07:55:47;;;;;;;49.33;12.88;;;1.30;96.20;;;;;;6189243;23;20552;-84
2021/12/03 07:58:26;;;;;;;55.30;13.05;;;1.30;96.00;;;;;;6189223;23;20024;-85
2021/12/03 08:01:13;;;;;;;47.88;13.90;;;1.40;95.90;;;;;;6189288;23;20479;-84
2021/12/03 08:03:44;;;;;;;33.17;10.30;;;1.30;95.70;;;;;;6187950;23;20032;-84
2021/12/03 08:06:23;;;;;;;30.77;9.93;;;1.30;95.60;;;;;;6190234;23;20174;-85
2021/12/03 08:08:57;;;;;;;39.30;10.93;;;1.30;95.30;;;;;;6190634;23;20021;-85
2021/12/03 08:11:27;;;;;;;35.28;11.45;;;1.30;95.10;;;;;;6189788;23;20030;-84
2021/12/03 08:13:54;;;;;;;23.63;8.95;;;1.30;95.20;;;;;;6191471;23;20048;-85
2021/12/03 08:16:21;;;;;;;29.08;10.65;;;1.30;95.20;;;;;;6191890;23;20018;-84
2021/12/03 08:18:50;;;;;;;28.33;9.77;;;1.40;94.10;;;;;;6214295;23;20020;-84
2021/12/03 08:21:29;;;;;;;28.30;8.98;;;1.40;93.60;;;;;;6192117;23;20411;-84
2021/12/03 08:24:00;;;;;;;29.50;9.95;;;1.30;93.40;;;;;;6192072;23;20021;-84
2021/12/03 08:26:32;;;;;;;28.58;10.20;;;1.40;92.50;;;;;;6191620;23;20022;-84
2021/12/03 08:29:15;;;;;;;29.27;9.43;;;1.30;93.10;;;;;;6190368;23;20024;-82
2021/12/03 08:31:46;;;;;;;29.77;9.15;;;1.30;93.30;;;;;;6192297;23;20025;-83
2021/12/03 08:34:13;;;;;;;41.90;10.45;;;1.30;94.00;;;;;;6188865;23;20849;-83
2021/12/03 08:36:41;;;;;;;38.83;10.70;;;1.40;93.90;;;;;;6187679;23;20467;-84
2021/12/03 08:39:07;;;;;;;37.88;9.68;;;1.40;94.20;;;;;;6189659;23;20021;-84
2021/12/03 08:41:39;;;;;;;43.28;10.95;;;1.40;94.30;;;;;;6188616;23;20403;-84
2021/12/03 08:44:11;;;;;;;47.15;10.57;;;1.40;94.40;;;;;;6187999;23;20418;-84
2021/12/03 08:46:39;;;;;;;43.95;9.70;;;1.40;94.70;;;;;;6188278;23;20052;-83
2021/12/03 08:49:15;;;;;;;41.45;9.95;;;1.50;94.60;;;;;;6187670;23;20023;-84
2021/12/03 08:57:02;;;;;;;36.20;8.73;;;1.60;91.00;;;;;;6188522;23;20452;-84
2021/12/03 08:59:29;;;;;;;39.65;8.45;;;1.60;91.00;;;;;;6187432;23;20148;-84
2021/12/03 09:01:56;;;;;;;42.42;8.60;;;1.60;91.80;;;;;;6186453;23;20067;-84
2021/12/03 09:04:23;;;;;;;34.05;7.82;;;1.70;91.80;;;;;;6188668;23;20837;-84
2021/12/03 09:06:50;;;;;;;34.78;8.88;;;1.70;91.20;;;;;;6211667;23;20100;-84
2021/12/03 09:09:17;;;;;;;35.10;8.93;;;1.70;91.70;;;;;;6185502;23;20029;-85
2021/12/03 09:11:44;;;;;;;38.20;7.85;;;1.70;91.00;;;;;;6187413;23;20071;-84
2021/12/03 09:16:58;;;;;;;29.08;6.78;;;1.80;91.20;;;;;;6188274;23;20049;-84
2021/12/03 09:19:32;;;;;;;29.30;6.50;;;1.80;91.40;;;;;;6186589;23;20374;-83
2021/12/03 09:22:00;;;;;;;24.38;6.68;;;1.80;91.30;;;;;;6186693;23;20033;-84
2021/12/03 09:24:37;;;;;;;32.05;6.80;;;1.80;91.70;;;;;;6187253;23;20018;-84
2021/12/03 09:27:07;;;;;;;35.45;6.45;;;1.80;90.90;;;;;;6187824;23;20018;-84
2021/12/03 09:29:35;;;;;;;27.58;7.25;;;1.80;90.80;;;;;;6186450;23;20018;-84
2021/12/03 09:32:03;;;;;;;28.85;6.75;;;1.90;91.40;;;;;;6187622;23;20033;-84
2021/12/03 09:34:35;;;;;;;24.95;5.47;;;1.90;92.20;;;;;;6188220;23;20026;-84
2021/12/03 09:37:04;;;;;;;20.80;5.20;;;2.00;91.60;;;;;;6187747;23;20022;-84
2021/12/03 09:39:33;;;;;;;22.05;5.05;;;2.00;90.70;;;;;;6186569;23;20029;-84
2021/12/03 09:42:04;;;;;;;24.83;5.95;;;2.10;91.30;;;;;;6185683;23;20060;-84
2021/12/03 09:44:35;;;;;;;17.63;4.13;;;2.10;90.80;;;;;;6187558;23;20017;-84
2021/12/03 09:47:24;;;;;;;21.00;5.03;;;2.10;89.70;;;;;;6187789;23;20056;-84
2021/12/03 09:50:04;;;;;;;16.05;4.10;;;2.20;90.20;;;;;;6187366;23;20030;-84
2021/12/03 09:52:59;;;;;;;21.33;5.10;;;2.20;90.20;;;;;;6187246;23;20033;-84
2021/12/03 09:55:53;;;;;;;17.88;4.25;;;2.20;90.80;;;;;;6187996;23;20489;-84
2021/12/03 10:01:46;;;;;;;15.65;4.38;;;2.30;91.00;;;;;;6125038;23;20033;-84
2021/12/03 10:05:19;;;;;;;22.67;4.38;;;2.40;90.90;;;;;;6105967;23;20586;-84
2021/12/03 10:17:43;;;;;;;15.27;4.10;;;2.40;90.10;;;;;;6124964;23;20034;-84
2021/12/03 10:56:17;;;;;;;18.33;4.32;;;2.40;92.60;;;;;;6156196;23;20089;-84
2021/12/03 11:16:53;;;;;;;12.40;4.43;;;2.70;90.90;;;;;;6189088;23;20093;-84
2021/12/03 11:43:08;;;;;;;15.65;4.57;;;3.10;89.30;;;;;;6126821;23;20026;-85
2021/12/03 12:04:40;;;;;;;16.55;5.18;;;3.30;87.70;;;;;;6127131;23;20056;-84
2021/12/03 12:17:14;;;;;;;19.08;4.63;;;3.50;87.20;;;;;;6169543;23;20032;-85
2021/12/03 12:29:12;;;;;;;13.27;4.47;;;3.60;86.50;;;;;;6188797;23;20025;-85
2021/12/03 13:22:49;;;;;;;11.45;4.07;;;3.60;84.30;;;;;;6187997;23;20894;-85
2021/12/03 13:28:40;;;;;;;10.38;3.67;;;3.60;85.00;;;;;;6188358;23;20336;-85
2021/12/03 13:42:02;;;;;;;10.10;3.95;;;3.50;87.10;;;;;;6187936;23;20041;-85
2021/12/03 14:42:47;;;;;;;15.20;5.50;;;3.20;90.80;;;;;;6190882;23;20042;-85
2021/12/03 14:45:15;;;;;;;11.60;5.18;;;3.20;91.50;;;;;;6174756;23;20541;-84
2021/12/03 14:48:06;;;;;;;9.10;5.32;;;3.20;91.60;;;;;;6189729;23;20340;-84
2021/12/03 14:53:37;;;;;;;11.27;6.03;;;3.10;91.80;;;;;;6189424;23;20834;-85
2021/12/03 14:56:10;;;;;;;11.07;6.32;;;3.20;92.40;;;;;;6187347;23;20112;-85
2021/12/03 14:58:53;;;;;;;12.52;6.88;;;3.10;92.40;;;;;;6189664;23;20049;-85
2021/12/03 15:04:51;;;;;;;13.35;7.10;;;3.10;93.10;;;;;;6188157;23;20475;-84
2021/12/03 15:07:45;;;;;;;17.30;7.65;;;3.10;93.40;;;;;;6186916;23;20064;-84
2021/12/03 15:10:23;;;;;;;12.20;6.47;;;3.10;93.50;;;;;;6189085;23;20471;-84
2021/12/03 15:13:13;;;;;;;11.57;7.25;;;3.10;93.80;;;;;;6183524;23;20026;-84
2021/12/03 15:24:42;;;;;;;17.35;8.45;;;3.10;94.20;;;;;;6189925;23;20810;-85
2021/12/03 16:08:29;;;;;;;15.63;11.02;;;3.20;95.20;;;;;;5850093;24;20031;-85
2021/12/03 16:11:33;;;;;;;;;;;;;;;;;;;;;
2021/12/03 16:14:35;;;;;;;15.93;11.70;;;3.20;95.30;;;;;;5904211;24;20907;-85
2021/12/03 16:17:15;;;;;;;16.60;12.05;;;3.20;95.30;;;;;;5982289;23;20019;-85
2021/12/03 16:26:20;;;;;;;17.63;11.48;;;3.20;95.30;;;;;;6189716;23;20063;-85
2021/12/03 16:43:55;;;;;;;18.25;12.57;;;3.30;95.20;;;;;;6189821;23;20109;-85
2021/12/03 16:57:10;;;;;;;17.95;12.70;;;3.30;95.00;;;;;;6096748;23;20167;-84
2021/12/03 17:03:04;;;;;;;16.98;12.30;;;3.30;94.70;;;;;;6117929;23;20022;-85
2021/12/03 17:06:53;;;;;;;15.98;12.25;;;3.40;94.80;;;;;;6082802;23;20027;-86
2021/12/03 17:12:08;;;;;;;16.55;12.70;;;3.40;94.70;;;;;;6126041;23;20050;-85
2021/12/03 17:17:36;;;;;;;20.45;14.00;;;3.40;94.70;;;;;;6125853;23;20061;-85
2021/12/03 17:25:21;;;;;;;19.13;14.15;;;3.40;95.10;;;;;;6126128;23;20069;-85
2021/12/03 17:30:58;;;;;;;18.48;13.65;;;3.40;95.30;;;;;;6127500;23;20023;-85
2021/12/03 17:48:13;;;;;;;22.83;15.85;;;3.40;95.10;;;;;;6189694;23;20037;-85
2021/12/03 17:56:10;;;;;;;21.40;14.35;;;3.40;94.80;;;;;;6189449;23;20022;-85
2021/12/03 17:58:52;;;;;;;19.42;14.25;;;3.40;94.70;;;;;;6189872;23;20029;-85
2021/12/03 18:04:13;;;;;;;17.67;12.73;;;3.40;94.70;;;;;;6125909;23;20376;-84
2021/12/03 18:06:54;;;;;;;18.23;13.82;;;3.50;94.80;;;;;;6126821;23;20030;-85
2021/12/03 18:55:29;;;;;;;21.15;14.02;;;3.60;94.50;;;;;;6188973;23;20501;-84
2021/12/03 18:58:02;;;;;;;20.88;14.80;;;3.60;94.30;;;;;;6189636;23;20498;-85
2021/12/03 19:00:51;;;;;;;20.55;14.23;;;3.60;94.40;;;;;;6188097;23;20050;-85
2021/12/03 19:03:29;;;;;;;20.20;14.40;;;3.60;94.40;;;;;;6188924;23;20022;-85
2021/12/03 19:08:48;;;;;;;22.10;15.15;;;3.60;94.50;;;;;;6189792;23;20037;-85
2021/12/03 19:11:24;;;;;;;22.25;16.17;;;3.60;94.60;;;;;;6187000;23;20801;-85
2021/12/03 19:13:53;;;;;;;20.52;15.10;;;3.60;94.70;;;;;;6188589;23;20034;-84
2021/12/03 19:16:23;;;;;;;27.27;16.48;;;3.60;94.70;;;;;;6188041;23;20116;-85
2021/12/03 19:18:57;;;;;;;26.00;16.75;;;3.60;94.80;;;;;;6189645;23;20026;-85
2021/12/03 19:21:27;;;;;;;25.10;16.88;;;3.60;94.90;;;;;;6189823;23;20096;-85
2021/12/03 19:23:58;;;;;;;26.25;17.92;;;3.60;94.90;;;;;;6192760;23;20045;-85
2021/12/03 19:26:27;;;;;;;27.15;18.08;;;3.60;95.00;;;;;;6193374;23;20028;-85
2021/12/03 19:28:55;;;;;;;28.92;18.73;;;3.60;95.10;;;;;;6215476;23;20045;-85
2021/12/03 19:31:24;;;;;;;30.38;18.77;;;3.60;95.20;;;;;;6190763;23;20080;-84
2021/12/03 19:33:53;;;;;;;32.40;19.98;;;3.60;95.30;;;;;;6186958;23;20033;-86
2021/12/03 19:36:27;;;;;;;27.00;18.58;;;3.60;95.30;;;;;;6186971;23;20041;-84
2021/12/03 19:38:59;;;;;;;29.30;18.70;;;3.60;95.30;;;;;;6187145;23;20849;-85
2021/12/03 19:44:20;;;;;;;31.67;19.20;;;3.60;95.40;;;;;;6188528;23;20368;-85
2021/12/03 19:46:51;;;;;;;29.08;18.55;;;3.60;95.50;;;;;;6212423;23;20029;-85
2021/12/03 19:49:32;;;;;;;24.83;17.17;;;3.60;95.50;;;;;;6187334;23;20032;-85
2021/12/03 19:54:58;;;;;;;29.98;18.90;;;3.60;95.50;;;;;;6174814;23;20025;-85
2021/12/03 19:57:25;;;;;;;28.73;17.52;;;3.60;95.60;;;;;;6185425;23;20017;-85
2021/12/03 19:59:52;;;;;;;26.35;17.98;;;3.60;95.70;;;;;;6188201;23;20021;-84
2021/12/03 20:02:19;;;;;;;27.05;18.52;;;3.60;95.60;;;;;;6187807;23;20797;-85
2021/12/03 20:04:46;;;;;;;29.70;18.10;;;3.60;95.50;;;;;;6188733;23;20053;-84
2021/12/03 20:07:14;;;;;;;30.65;19.13;;;3.60;95.60;;;;;;6187792;23;20466;-85
2021/12/03 20:09:56;;;;;;;28.13;17.88;;;3.60;95.50;;;;;;6188490;23;20021;-85
2021/12/03 20:12:24;;;;;;;29.85;18.40;;;3.60;95.50;;;;;;6208567;23;20100;-85
2021/12/03 20:14:55;;;;;;;31.55;18.80;;;3.60;95.60;;;;;;6189050;23;20699;-84
2021/12/03 20:19:53;;;;;;;27.17;17.55;;;3.60;95.60;;;;;;6187699;23;20032;-85
2021/12/03 20:22:39;;;;;;;29.80;18.23;;;3.60;95.50;;;;;;6188406;23;20069;-85